Map

Track Data

SID SEASON NUMBER BASIN SUBBASIN NAME ISO_TIME NATURE LAT LON WMO_WIND WMO_PRES WMO_AGENCY TRACK_TYPE DIST2LAND LANDFALL IFLAG USA_AGENCY USA_ATCF_ID USA_LAT USA_LON USA_RECORD USA_STATUS USA_WIND USA_PRES USA_SSHS USA_R34_NE USA_R34_SE USA_R34_SW USA_R34_NW USA_R50_NE USA_R50_SE USA_R50_SW USA_R50_NW USA_R64_NE USA_R64_SE USA_R64_SW USA_R64_NW USA_POCI USA_ROCI USA_RMW USA_EYE TOKYO_LAT TOKYO_LON TOKYO_GRADE TOKYO_WIND TOKYO_PRES TOKYO_R50_DIR TOKYO_R50_LONG TOKYO_R50_SHORT TOKYO_R30_DIR TOKYO_R30_LONG TOKYO_R30_SHORT TOKYO_LAND CMA_LAT CMA_LON CMA_CAT CMA_WIND CMA_PRES HKO_LAT HKO_LON HKO_CAT HKO_WIND HKO_PRES NEWDELHI_LAT NEWDELHI_LON NEWDELHI_GRADE NEWDELHI_WIND NEWDELHI_PRES NEWDELHI_CI NEWDELHI_DP NEWDELHI_POCI REUNION_LAT REUNION_LON REUNION_TYPE REUNION_WIND REUNION_PRES REUNION_TNUM REUNION_CI REUNION_RMW REUNION_R34_NE REUNION_R34_SE REUNION_R34_SW REUNION_R34_NW REUNION_R50_NE REUNION_R50_SE REUNION_R50_SW REUNION_R50_NW REUNION_R64_NE REUNION_R64_SE REUNION_R64_SW REUNION_R64_NW BOM_LAT BOM_LON BOM_TYPE BOM_WIND BOM_PRES BOM_TNUM BOM_CI BOM_RMW BOM_R34_NE BOM_R34_SE BOM_R34_SW BOM_R34_NW BOM_R50_NE BOM_R50_SE BOM_R50_SW BOM_R50_NW BOM_R64_NE BOM_R64_SE BOM_R64_SW BOM_R64_NW BOM_ROCI BOM_POCI BOM_EYE BOM_POS_METHOD BOM_PRES_METHOD NADI_LAT NADI_LON NADI_CAT NADI_WIND NADI_PRES WELLINGTON_LAT WELLINGTON_LON WELLINGTON_WIND WELLINGTON_PRES DS824_LAT DS824_LON DS824_STAGE DS824_WIND DS824_PRES TD9636_LAT TD9636_LON TD9636_STAGE TD9636_WIND TD9636_PRES TD9635_LAT TD9635_LON TD9635_WIND TD9635_PRES TD9635_ROCI NEUMANN_LAT NEUMANN_LON NEUMANN_CLASS NEUMANN_WIND NEUMANN_PRES MLC_LAT MLC_LON MLC_CLASS MLC_WIND MLC_PRES USA_GUST BOM_GUST BOM_GUST_PER REUNION_GUST REUNION_GUST_PER USA_SEAHGT USA_SEARAD_NE USA_SEARAD_SE USA_SEARAD_SW USA_SEARAD_NW STORM_SPEED STORM_DIR
1985234N13258 1985 73 EP MM OLAF 1985-08-22 00:00:00 TS 12.9000 -102.200 25 hurdat_epa main 503 503 O_________O___ hurdat_epa EP151985 12.9000 -102.200 TD 25 -1 12.9000 -102.200 1 25 6 280
1985234N13258 1985 73 EP MM OLAF 1985-08-22 03:00:00 TS 12.9525 -102.498 main 504 504 P_________P___ EP151985 12.9475 -102.488 TD 25 -1 12.9675 -102.529 1 25 6 280
1985234N13258 1985 73 EP MM OLAF 1985-08-22 06:00:00 TS 13.0070 -102.814 25 hurdat_epa main 514 514 O_________P___ hurdat_epa EP151985 13.0000 -102.800 TD 25 -1 13.0278 -102.857 1 25 7 280
1985234N13258 1985 73 EP MM OLAF 1985-08-22 09:00:00 TS 13.0617 -103.158 main 521 521 P_________P___ EP151985 13.0575 -103.150 TD 25 -1 13.0743 -103.181 1 25 7 278
1985234N13258 1985 73 EP MM OLAF 1985-08-22 12:00:00 TS 13.1000 -103.500 25 hurdat_epa main 536 536 O_________O___ hurdat_epa EP151985 13.1000 -103.500 TD 25 -1 13.1000 -103.500 1 25 6 274
1985234N13258 1985 73 EP MM OLAF 1985-08-22 15:00:00 TS 13.1113 -103.808 main 552 552 P_________P___ EP151985 13.1149 -103.808 TD 25 -1 13.1005 -103.811 1 26 6 270
1985234N13258 1985 73 EP MM OLAF 1985-08-22 18:00:00 TS 13.0950 -104.104 25 hurdat_epa main 569 569 O_________P___ hurdat_epa EP151985 13.1000 -104.100 TD 25 -1 13.0799 -104.115 1 27 6 264
1985234N13258 1985 73 EP MM OLAF 1985-08-22 21:00:00 TS 13.0542 -104.408 main 581 581 P_________P___ EP151985 13.0575 -104.408 TD 27 -1 13.0443 -104.411 1 28 6 261
1985234N13258 1985 73 EP MM OLAF 1985-08-23 00:00:00 TS 13.0000 -104.700 30 hurdat_epa main 602 602 O_________O___ hurdat_epa EP151985 13.0000 -104.700 TD 30 -1 13.0000 -104.700 1 30 5 259
1985234N13258 1985 73 EP MM OLAF 1985-08-23 03:00:00 TS 12.9507 -104.958 main 613 613 P_________P___ EP151985 12.9499 -104.950 TD 30 -1 12.9530 -104.982 1 30 5 259
1985234N13258 1985 73 EP MM OLAF 1985-08-23 06:00:00 TS 12.9000 -105.214 30 hurdat_epa main 630 630 O_________P___ hurdat_epa EP151985 12.9000 -105.200 TD 30 -1 12.8998 -105.258 1 30 5 259
1985234N13258 1985 73 EP MM OLAF 1985-08-23 09:00:00 TS 12.8492 -105.507 main 651 651 P_________P___ EP151985 12.8500 -105.500 TD 30 -1 12.8468 -105.529 1 30 6 260
1985234N13258 1985 73 EP MM OLAF 1985-08-23 12:00:00 TS 12.8000 -105.800 30 hurdat_epa main 663 663 O_________O___ hurdat_epa EP151985 12.8000 -105.800 TD 30 -1 12.8000 -105.800 1 30 5 259
1985234N13258 1985 73 EP MM OLAF 1985-08-23 15:00:00 TS 12.7467 -106.056 main 685 685 P_________P___ EP151985 12.7424 -106.050 TD 30 -1 12.7596 -106.075 1 31 5 259
1985234N13258 1985 73 EP MM OLAF 1985-08-23 18:00:00 TS 12.7068 -106.313 30 hurdat_epa main 694 694 O_________P___ hurdat_epa EP151985 12.7000 -106.300 TD 30 -1 12.7274 -106.350 1 32 5 265
1985234N13258 1985 73 EP MM OLAF 1985-08-23 21:00:00 TS 12.6960 -106.606 main 709 709 P_________P___ EP151985 12.6925 -106.600 TD 32 -1 12.7065 -106.625 1 33 6 269
1985234N13258 1985 73 EP MM OLAF 1985-08-24 00:00:00 TS 12.7000 -106.900 35 hurdat_epa main 724 724 O_________O___ hurdat_epa EP151985 12.7000 -106.900 TS 35 0 12.7000 -106.900 2 35 5 269
1985234N13258 1985 73 EP MM OLAF 1985-08-24 03:00:00 TS 12.6888 -107.154 main 741 741 P_________P___ EP151985 12.6924 -107.150 TS 35 0 12.6780 -107.167 2 35 5 269
1985234N13258 1985 73 EP MM OLAF 1985-08-24 06:00:00 TS 12.6937 -107.409 35 hurdat_epa main 753 753 O_________P___ hurdat_epa EP151985 12.7000 -107.400 TS 35 0 12.6748 -107.435 2 35 5 274
1985234N13258 1985 73 EP MM OLAF 1985-08-24 09:00:00 TS 12.7285 -107.697 main 771 768 P_________P___ EP151985 12.7350 -107.693 TS 35 0 12.7092 -107.711 2 35 6 280
1985234N13258 1985 73 EP MM OLAF 1985-08-24 12:00:00 TS 12.8000 -108.000 35 hurdat_epa main 781 781 O_________O___ hurdat_epa EP151985 12.8000 -108.000 TS 35 0 12.8000 -108.000 2 35 6 284
1985234N13258 1985 73 EP MM OLAF 1985-08-24 15:00:00 TS 12.8719 -108.300 main 793 793 P_________P___ EP151985 12.8549 -108.293 TS 37 0 12.9229 -108.323 2 40 6 291
1985234N13258 1985 73 EP MM OLAF 1985-08-24 18:00:00 TS 13.0269 -108.614 40 hurdat_epa main 803 792 O_________P___ hurdat_epa EP151985 13.0000 -108.600 TS 40 0 13.1077 -108.658 2 45 8 305
1985234N13258 1985 73 EP MM OLAF 1985-08-24 21:00:00 TS 13.3140 -108.960 main 798 780 P_________P___ EP151985 13.2975 -108.950 TS 47 0 13.3636 -108.989 2 50 10 315
1985234N13258 1985 73 EP MM OLAF 1985-08-25 00:00:00 TS 13.7000 -109.300 55 hurdat_epa main 780 766 O_________O___ hurdat_epa EP151985 13.7000 -109.300 TS 55 0 13.7000 -109.300 2 55 10 322
1985234N13258 1985 73 EP MM OLAF 1985-08-25 03:00:00 TS 14.1191 -109.602 main 766 747 P_________P___ EP151985 14.1200 -109.623 TS 55 0 14.1164 -109.540 2 55 11 329
1985234N13258 1985 73 EP MM OLAF 1985-08-25 06:00:00 TS 14.6023 -109.866 55 hurdat_epa main 747 716 O_________P___ hurdat_epa EP151985 14.6000 -109.900 TS 55 0 14.6093 -109.764 2 55 11 336
1985234N13258 1985 73 EP MM OLAF 1985-08-25 09:00:00 TS 15.1324 -110.066 main 724 692 P_________P___ EP151985 15.1273 -110.085 TS 55 0 15.1476 -110.006 2 55 12 339
1985234N13258 1985 73 EP MM OLAF 1985-08-25 12:00:00 TS 15.7000 -110.300 55 hurdat_epa main 693 677 O_________O___ hurdat_epa EP151985 15.7000 -110.300 TS 55 0 15.7000 -110.300 2 55 13 334
1985234N13258 1985 73 EP MM OLAF 1985-08-25 15:00:00 TS 16.2987 -110.658 main 686 676 P_________P___ EP151985 16.3150 -110.655 TS 57 0 16.2501 -110.668 2 57 14 327
1985234N13258 1985 73 EP MM OLAF 1985-08-25 18:00:00 TS 16.8755 -111.099 60 hurdat_epa main 680 634 O_________P___ hurdat_epa EP151985 16.9000 -111.100 TS 60 0 16.8021 -111.095 2 60 14 321
1985234N13258 1985 73 EP MM OLAF 1985-08-25 21:00:00 TS 17.3781 -111.571 main 637 607 P_________P___ EP151985 17.3948 -111.570 TS 62 0 17.3280 -111.574 2 62 13 314
1985234N13258 1985 73 EP MM OLAF 1985-08-26 00:00:00 TS 17.8000 -112.100 65 hurdat_epa main 610 596 O_________O___ hurdat_epa EP151985 17.8000 -112.100 HU 65 1 17.8000 -112.100 3 65 13 305
1985234N13258 1985 73 EP MM OLAF 1985-08-26 03:00:00 TS 18.1278 -112.679 main 605 596 P_________P___ EP151985 18.1149 -112.685 HU 67 1 18.1663 -112.658 3 66 13 299
1985234N13258 1985 73 EP MM OLAF 1985-08-26 06:00:00 TS 18.4200 -113.289 70 hurdat_epa main 609 605 O_________P___ hurdat_epa EP151985 18.4000 -113.300 HU 70 1 18.4800 -113.257 3 67 13 298
1985234N13258 1985 73 EP MM OLAF 1985-08-26 09:00:00 TS 18.7401 -113.895 main 620 611 P_________P___ EP151985 18.7273 -113.900 HU 70 1 18.7787 -113.877 3 68 13 301
1985234N13258 1985 73 EP MM OLAF 1985-08-26 12:00:00 TS 19.1000 -114.500 70 hurdat_epa main 631 631 O_________O___ hurdat_epa EP151985 19.1000 -114.500 HU 70 1 19.1000 -114.500 4 70 14 305
1985234N13258 1985 73 EP MM OLAF 1985-08-26 15:00:00 TS 19.5376 -115.094 main 651 639 P_________P___ EP151985 19.5423 -115.100 HU 72 1 19.5235 -115.076 4 71 14 309
1985234N13258 1985 73 EP MM OLAF 1985-08-26 18:00:00 TS 19.9927 -115.689 75 hurdat_epa main 642 636 O_________P___ hurdat_epa EP151985 20.0000 -115.700 HU 75 1 19.9707 -115.655 4 72 14 308
1985234N13258 1985 73 EP MM OLAF 1985-08-26 21:00:00 TS 20.4186 -116.284 main 645 643 P_________P___ EP151985 20.4222 -116.293 HU 75 1 20.4076 -116.257 4 73 14 305
1985234N13258 1985 73 EP MM OLAF 1985-08-27 00:00:00 TS 20.8000 -116.900 75 hurdat_epa main 657 656 O_________O___ hurdat_epa EP151985 20.8000 -116.900 HU 75 1 20.8000 -116.900 4 75 14 301
1985234N13258 1985 73 EP MM OLAF 1985-08-27 03:00:00 TS 21.1259 -117.529 main 682 682 P_________P___ EP151985 21.1294 -117.513 HU 75 1 21.1153 -117.576 4 73 14 296
1985234N13258 1985 73 EP MM OLAF 1985-08-27 06:00:00 TS 21.3951 -118.224 75 hurdat_epa main 721 721 O_________P___ hurdat_epa EP151985 21.4000 -118.200 HU 75 1 21.3805 -118.297 4 72 15 290
1985234N13258 1985 73 EP MM OLAF 1985-08-27 09:00:00 TS 21.6179 -119.016 main 779 779 P_________P___ EP151985 21.6221 -118.998 HU 72 1 21.6054 -119.069 4 71 16 285
1985234N13258 1985 73 EP MM OLAF 1985-08-27 12:00:00 TS 21.8000 -119.900 70 hurdat_epa main 820 820 O_________O___ hurdat_epa EP151985 21.8000 -119.900 HU 70 1 21.8000 -119.900 4 70 18 282
1985234N13258 1985 73 EP MM OLAF 1985-08-27 15:00:00 TS 21.9703 -120.879 main 871 871 P_________P___ EP151985 21.9575 -120.893 HU 67 1 22.0087 -120.837 4 68 19 280
1985234N13258 1985 73 EP MM OLAF 1985-08-27 18:00:00 TS 22.1212 -121.880 65 hurdat_epa main 935 935 O_________P___ hurdat_epa EP151985 22.1000 -121.900 HU 65 1 22.1848 -121.822 4 67 18 280
1985234N13258 1985 73 EP MM OLAF 1985-08-27 21:00:00 TS 22.2838 -122.838 main 990 990 P_________P___ EP151985 22.2723 -122.852 HU 65 1 22.3182 -122.796 4 66 17 279
1985234N13258 1985 73 EP MM OLAF 1985-08-28 00:00:00 TS 22.4000 -123.700 65 hurdat_epa main 1056 1056 O_________O___ hurdat_epa EP151985 22.4000 -123.700 HU 65 1 22.4000 -123.700 4 65 15 276
1985234N13258 1985 73 EP MM OLAF 1985-08-28 03:00:00 TS 22.4317 -124.405 main 1115 1115 P_________P___ EP151985 22.4291 -124.380 HU 60 0 22.4394 -124.479 4 60 12 270
1985234N13258 1985 73 EP MM OLAF 1985-08-28 06:00:00 TS 22.4075 -125.045 55 hurdat_epa main 1167 1167 O_________P___ hurdat_epa EP151985 22.4000 -125.000 TS 55 0 22.4300 -125.178 4 55 12 267
1985234N13258 1985 73 EP MM OLAF 1985-08-28 09:00:00 TS 22.3745 -125.734 main 1228 1228 P_________P___ EP151985 22.3725 -125.707 TS 50 0 22.3807 -125.813 4 50 13 265
1985234N13258 1985 73 EP MM OLAF 1985-08-28 12:00:00 TS 22.3000 -126.400 45 hurdat_epa main 1296 1296 O_________O___ hurdat_epa EP151985 22.3000 -126.400 TS 45 0 22.3000 -126.400 2 45 12 260
1985234N13258 1985 73 EP MM OLAF 1985-08-28 15:00:00 TS 22.1597 -127.032 main 1355 1355 P_________P___ EP151985 22.1573 -127.038 TS 42 0 22.1668 -127.014 2 43 11 255
1985234N13258 1985 73 EP MM OLAF 1985-08-28 18:00:00 TS 22.0030 -127.595 40 hurdat_epa main 1419 1419 O_________P___ hurdat_epa EP151985 22.0000 -127.600 TS 40 0 22.0121 -127.579 2 42 10 254
1985234N13258 1985 73 EP MM OLAF 1985-08-28 21:00:00 TS 21.8715 -128.097 main 1470 1470 P_________P___ EP151985 21.8699 -128.102 TS 40 0 21.8764 -128.079 2 41 9 256
1985234N13258 1985 73 EP MM OLAF 1985-08-29 00:00:00 TS 21.8000 -128.500 40 hurdat_epa main 1512 1512 O_________O___ hurdat_epa EP151985 21.8000 -128.500 TS 40 0 21.8000 -128.500 2 40 7 265
1985234N13258 1985 73 EP MM OLAF 1985-08-29 03:00:00 TS 21.8148 -128.796 main 1539 1539 P_________P___ EP151985 21.8123 -128.780 TS 37 0 21.8223 -128.845 2 37 5 282
1985234N13258 1985 73 EP MM OLAF 1985-08-29 06:00:00 TS 21.9023 -129.028 35 hurdat_epa main 1552 1552 O_________P___ hurdat_epa EP151985 21.9000 -129.000 TS 35 0 21.9090 -129.112 2 35 5 297
1985234N13258 1985 73 EP MM OLAF 1985-08-29 09:00:00 TS 22.0366 -129.268 main 1574 1569 P_________P___ EP151985 22.0350 -129.250 TS 32 -1 22.0413 -129.323 2 32 5 304
1985234N13258 1985 73 EP MM OLAF 1985-08-29 12:00:00 TS 22.2000 -129.500 30 hurdat_epa main 1583 1583 O_________O___ hurdat_epa EP151985 22.2000 -129.500 TD 30 -1 22.2000 -129.500 1 30 5 304
1985234N13258 1985 73 EP MM OLAF 1985-08-29 15:00:00 TS 22.3381 -129.760 main 1606 1601 P_________P___ EP151985 22.3426 -129.780 TD 30 -1 22.3249 -129.699 1 28 5 304
1985234N13258 1985 73 EP MM OLAF 1985-08-29 18:00:00 TS 22.4937 -129.967 30 hurdat_epa main 1615 1605 O_________P___ hurdat_epa EP151985 22.5000 -130.000 TD 30 -1 22.4749 -129.868 1 27 4 320
1985234N13258 1985 73 EP MM OLAF 1985-08-29 21:00:00 TS 22.6737 -130.066 main 1605 1586 P_________P___ EP151985 22.6774 -130.088 TD 27 -1 22.6624 -130.002 1 26 4 343
1985234N13258 1985 73 EP MM OLAF 1985-08-30 00:00:00 TS 22.9000 -130.100 25 hurdat_epa main 1586 1558 O_________O___ hurdat_epa EP151985 22.9000 -130.100 TD 25 -1 22.9000 -130.100 1 25 5 356
1985234N13258 1985 73 EP MM OLAF 1985-08-30 03:00:00 TS 23.1774 -130.114 main 1558 1531 P_________P___ EP151985 23.1700 -130.100 TD 25 -1 23.1996 -130.157 1 25 6 0
1985234N13258 1985 73 EP MM OLAF 1985-08-30 06:00:00 TS 23.5119 -130.120 25 hurdat_epa main 1531 1501 O_________P___ hurdat_epa EP151985 23.5000 -130.100 TD 25 -1 23.5474 -130.181 1 25 7 357
1985234N13258 1985 73 EP MM OLAF 1985-08-30 09:00:00 TS 23.8941 -130.154 main 1501 1465 P_________P___ EP151985 23.8850 -130.142 TD 25 -1 23.9215 -130.188 1 25 8 355
1985234N13258 1985 73 EP MM OLAF 1985-08-30 12:00:00 TS 24.3000 -130.200 25 hurdat_epa main 1465 1430 O_________O___ hurdat_epa EP151985 24.3000 -130.200 TD 25 -1 24.3000 -130.200 1 25 8 354
1985234N13258 1985 73 EP MM OLAF 1985-08-30 15:00:00 TS 24.7098 -130.248 main 1430 1401 P_________P___ EP151985 24.7150 -130.250 TD 25 -1 24.6943 -130.243 1 25 8 354
1985234N13258 1985 73 EP MM OLAF 1985-08-30 18:00:00 TS 25.0955 -130.298 25 hurdat_epa main 1401 1376 O_________P___ hurdat_epa EP151985 25.1000 -130.300 TD 25 -1 25.0818 -130.293 1 25 7 353
1985234N13258 1985 73 EP MM OLAF 1985-08-30 21:00:00 TS 25.4352 -130.349 main 1376 1357 P_________P___ EP151985 25.4375 -130.350 TD 25 -1 25.4284 -130.346 1 25 6 352
1985234N13258 1985 73 EP MM OLAF 1985-08-31 00:00:00 TS 25.7000 -130.400 25 hurdat_epa main 1357 1341 O_________O___ hurdat_epa EP151985 25.7000 -130.400 TD 25 -1 25.7000 -130.400 1 25 5 349
1985234N13258 1985 73 EP MM OLAF 1985-08-31 03:00:00 TS 25.8756 -130.450 main 1348 1339 P_________P___ EP151985 25.8750 -130.450 TD 25 -1 25.8773 -130.451 1 25 3 344
1985234N13258 1985 73 EP MM OLAF 1985-08-31 06:00:00 TS 26.0000 -130.500 25 hurdat_epa main 1339 O_________O___ hurdat_epa EP151985 26.0000 -130.500 TD 25 -1 26.0000 -130.500 1 25 3 341

About IBTrACS Database

This database is a web-friendly format of International Best Track Archive for Climate Stewardship (IBTrACS), a global best track data archive curated by NOAA dating back to 1842.

Updated: 2021-12-03